Time;durP1;ratioP1;P1;durP2;ratioP2;P2;SDS_P1;SDS_P2;PMS_P1;PMS_P2;Temp;Humidity;BMP_temperature;BMP_pressure;BME280_temperature;BME280_humidity;BME280_pressure;Samples;Min_cycle;Max_cycle;Signal;HPM_P1;HPM_P2
2022/07/09 00:00:41;;;;;;;0.17;0.17;;;;;;;;;;4932429;29;20030;-62
2022/07/09 00:03:06;;;;;;;0.00;0.00;;;;;;;;;;4933028;29;20028;-64
2022/07/09 00:05:31;;;;;;;0.00;0.00;;;;;;;;;;4933427;29;20027;-64
2022/07/09 00:07:57;;;;;;;0.00;0.00;;;;;;;;;;4933076;29;20437;-65
2022/07/09 00:10:22;;;;;;;0.00;0.00;;;;;;;;;;4932806;29;20102;-65
2022/07/09 00:12:47;;;;;;;0.00;0.00;;;;;;;;;;4916345;29;20041;-65
2022/07/09 00:15:12;;;;;;;0.00;0.00;;;;;;;;;;4933178;29;20151;-64
2022/07/09 00:17:38;;;;;;;0.15;0.15;;;;;;;;;;4914807;29;20481;-64
2022/07/09 00:20:04;;;;;;;0.00;0.00;;;;;;;;;;4930888;29;20027;-65
2022/07/09 00:22:31;;;;;;;0.00;0.00;;;;;;;;;;4933587;29;20099;-65
2022/07/09 00:24:56;;;;;;;0.00;0.00;;;;;;;;;;4933018;29;20028;-66
2022/07/09 00:27:22;;;;;;;0.00;0.00;;;;;;;;;;4932850;29;20024;-66
2022/07/09 00:29:48;;;;;;;0.00;0.00;;;;;;;;;;4933213;29;20023;-64
2022/07/09 00:32:13;;;;;;;0.00;0.00;;;;;;;;;;4932994;29;20064;-64
2022/07/09 00:34:38;;;;;;;0.00;0.00;;;;;;;;;;4933138;29;20389;-63
2022/07/09 00:37:05;;;;;;;0.00;0.00;;;;;;;;;;4932046;29;20028;-63
2022/07/09 00:39:30;;;;;;;0.00;0.00;;;;;;;;;;4931373;29;20035;-63
2022/07/09 00:42:08;;;;;;;0.00;0.00;;;;;;;;;;4932177;29;20028;-63
2022/07/09 00:44:34;;;;;;;0.00;0.00;;;;;;;;;;4931456;29;20030;-63
2022/07/09 00:46:59;;;;;;;0.00;0.00;;;;;;;;;;4914626;29;20027;-65
2022/07/09 00:49:25;;;;;;;0.00;0.00;;;;;;;;;;4933018;29;20373;-65
2022/07/09 00:51:50;;;;;;;0.00;0.00;;;;;;;;;;4933243;29;20547;-66
2022/07/09 00:54:16;;;;;;;0.00;0.00;;;;;;;;;;4930846;29;20054;-66
2022/07/09 00:56:41;;;;;;;0.00;0.00;;;;;;;;;;4932705;29;20046;-66
2022/07/09 00:59:10;;;;;;;0.00;0.00;;;;;;;;;;4932397;29;20027;-66
2022/07/09 01:01:35;;;;;;;0.00;0.00;;;;;;;;;;4931938;29;20100;-63
2022/07/09 01:04:01;;;;;;;0.00;0.00;;;;;;;;;;4932356;29;20031;-63
2022/07/09 01:06:26;;;;;;;0.00;0.00;;;;;;;;;;4932651;29;20090;-63
2022/07/09 01:08:51;;;;;;;0.00;0.00;;;;;;;;;;4932712;29;20438;-63
2022/07/09 01:11:16;;;;;;;0.00;0.00;;;;;;;;;;4914761;29;20490;-63
2022/07/09 01:13:42;;;;;;;0.00;0.00;;;;;;;;;;4932603;29;20029;-63
2022/07/09 01:16:14;;;;;;;0.00;0.00;;;;;;;;;;4931429;29;20024;-62
2022/07/09 01:18:39;;;;;;;0.00;0.00;;;;;;;;;;4931085;29;20036;-64
2022/07/09 01:21:05;;;;;;;0.00;0.00;;;;;;;;;;4931916;29;20067;-65
2022/07/09 01:23:30;;;;;;;0.00;0.00;;;;;;;;;;4932681;29;20238;-65
2022/07/09 01:25:56;;;;;;;0.00;0.00;;;;;;;;;;4932070;29;20082;-64
2022/07/09 01:28:21;;;;;;;0.00;0.00;;;;;;;;;;4931755;29;20087;-65
2022/07/09 01:30:46;;;;;;;0.00;0.00;;;;;;;;;;4932121;29;20075;-65
2022/07/09 01:33:12;;;;;;;0.00;0.00;;;;;;;;;;4931603;29;20028;-65
2022/07/09 01:35:38;;;;;;;0.00;0.00;;;;;;;;;;4932195;29;20274;-64
2022/07/09 01:38:03;;;;;;;0.00;0.00;;;;;;;;;;4931494;29;20474;-65
2022/07/09 01:40:28;;;;;;;0.00;0.00;;;;;;;;;;4932056;29;20103;-65
2022/07/09 01:42:54;;;;;;;0.00;0.00;;;;;;;;;;4931496;29;20028;-65
2022/07/09 01:45:19;;;;;;;0.00;0.00;;;;;;;;;;4930325;29;20023;-66
2022/07/09 01:47:44;;;;;;;0.00;0.00;;;;;;;;;;4931738;29;20020;-67
2022/07/09 01:50:10;;;;;;;0.00;0.00;;;;;;;;;;4931371;29;20122;-66
2022/07/09 01:52:35;;;;;;;0.00;0.00;;;;;;;;;;4931771;29;20482;-66
2022/07/09 01:55:01;;;;;;;0.80;0.80;;;;;;;;;;4931715;29;20032;-66
2022/07/09 01:57:26;;;;;;;0.00;0.00;;;;;;;;;;4931675;29;20036;-66
2022/07/09 01:59:51;;;;;;;0.00;0.00;;;;;;;;;;4931693;29;20031;-65
2022/07/09 02:02:16;;;;;;;0.00;0.00;;;;;;;;;;4931040;29;20071;-64
2022/07/09 02:04:42;;;;;;;0.00;0.00;;;;;;;;;;4931614;29;20023;-65
2022/07/09 02:07:07;;;;;;;0.00;0.00;;;;;;;;;;4931193;29;20417;-65
2022/07/09 02:09:32;;;;;;;0.00;0.00;;;;;;;;;;4931418;29;20615;-64
2022/07/09 02:11:58;;;;;;;0.00;0.00;;;;;;;;;;4931439;29;20517;-65
2022/07/09 02:14:23;;;;;;;0.00;0.00;;;;;;;;;;4930537;29;20427;-65
2022/07/09 02:16:48;;;;;;;0.00;0.00;;;;;;;;;;4930964;29;20106;-65
2022/07/09 02:19:14;;;;;;;0.00;0.00;;;;;;;;;;4929206;29;20030;-65
2022/07/09 02:21:39;;;;;;;0.00;0.00;;;;;;;;;;4931586;29;20043;-65
2022/07/09 02:24:05;;;;;;;0.00;0.00;;;;;;;;;;4913832;29;20027;-66
2022/07/09 02:26:30;;;;;;;0.00;0.00;;;;;;;;;;4931474;29;20727;-66
2022/07/09 02:28:55;;;;;;;0.00;0.00;;;;;;;;;;4913869;29;20516;-65
2022/07/09 02:31:21;;;;;;;0.00;0.00;;;;;;;;;;4930943;29;20485;-65
2022/07/09 02:33:46;;;;;;;0.00;0.00;;;;;;;;;;4931424;29;20023;-65
2022/07/09 02:36:11;;;;;;;0.00;0.00;;;;;;;;;;4930757;29;20079;-65
2022/07/09 02:38:36;;;;;;;0.00;0.00;;;;;;;;;;4930891;29;20087;-65
2022/07/09 02:41:02;;;;;;;0.00;0.00;;;;;;;;;;4930932;29;20019;-64
2022/07/09 02:43:27;;;;;;;0.00;0.00;;;;;;;;;;4930175;29;20035;-65
2022/07/09 02:45:55;;;;;;;0.00;0.00;;;;;;;;;;4931249;29;20026;-67
2022/07/09 02:48:20;;;;;;;0.00;0.00;;;;;;;;;;4930908;29;20469;-65
2022/07/09 02:50:45;;;;;;;0.00;0.00;;;;;;;;;;4930963;29;20030;-65
2022/07/09 02:53:11;;;;;;;0.00;0.00;;;;;;;;;;4930698;29;20453;-65
2022/07/09 02:55:36;;;;;;;0.00;0.00;;;;;;;;;;4931140;29;20055;-65
2022/07/09 02:58:01;;;;;;;0.00;0.00;;;;;;;;;;4930390;29;20118;-65
2022/07/09 03:00:26;;;;;;;0.00;0.00;;;;;;;;;;4931219;29;20041;-63
2022/07/09 03:02:51;;;;;;;5.15;4.95;;;;;;;;;;4927906;29;20016;-63
2022/07/09 03:05:17;;;;;;;0.00;0.00;;;;;;;;;;4912619;29;20015;-63
2022/07/09 03:07:42;;;;;;;0.00;0.00;;;;;;;;;;4932405;29;20026;-62
2022/07/09 03:10:07;;;;;;;0.00;0.00;;;;;;;;;;4933371;29;20030;-65
2022/07/09 03:12:33;;;;;;;0.00;0.00;;;;;;;;;;4916712;29;20098;-65
2022/07/09 03:14:58;;;;;;;0.00;0.00;;;;;;;;;;4934742;29;20119;-65
2022/07/09 03:17:23;;;;;;;0.00;0.00;;;;;;;;;;4933889;29;20027;-65
2022/07/09 03:19:48;;;;;;;0.00;0.00;;;;;;;;;;4934279;29;20028;-66
2022/07/09 03:22:13;;;;;;;0.00;0.00;;;;;;;;;;4933958;29;20031;-65
2022/07/09 03:24:39;;;;;;;0.00;0.00;;;;;;;;;;4934587;29;20043;-65
2022/07/09 03:27:04;;;;;;;0.00;0.00;;;;;;;;;;4933862;29;20038;-66
2022/07/09 03:29:29;;;;;;;0.00;0.00;;;;;;;;;;4934380;29;20027;-66
2022/07/09 03:31:54;;;;;;;0.00;0.00;;;;;;;;;;4934397;29;20027;-66
2022/07/09 03:34:20;;;;;;;0.00;0.00;;;;;;;;;;4934053;29;20032;-68
2022/07/09 03:36:45;;;;;;;0.00;0.00;;;;;;;;;;4934309;29;20075;-68
2022/07/09 03:39:10;;;;;;;0.00;0.00;;;;;;;;;;4932333;29;20024;-65
2022/07/09 03:41:35;;;;;;;0.00;0.00;;;;;;;;;;4933763;29;20034;-64
2022/07/09 03:44:00;;;;;;;0.00;0.00;;;;;;;;;;4933016;29;20039;-65
2022/07/09 03:46:26;;;;;;;0.08;0.08;;;;;;;;;;4933350;29;20389;-64
2022/07/09 03:48:51;;;;;;;0.00;0.00;;;;;;;;;;4933646;29;20023;-65
2022/07/09 03:51:16;;;;;;;0.00;0.00;;;;;;;;;;4933158;29;20098;-64
2022/07/09 03:53:41;;;;;;;0.00;0.00;;;;;;;;;;4933574;29;20083;-64
2022/07/09 03:56:07;;;;;;;0.00;0.00;;;;;;;;;;4932984;29;20034;-64
2022/07/09 03:58:32;;;;;;;0.00;0.00;;;;;;;;;;4932816;29;20343;-65
2022/07/09 04:00:57;;;;;;;0.00;0.00;;;;;;;;;;4932590;29;20016;-64
2022/07/09 04:03:22;;;;;;;0.00;0.00;;;;;;;;;;4933015;29;20029;-63
2022/07/09 04:05:48;;;;;;;0.00;0.00;;;;;;;;;;4933300;29;20039;-64
2022/07/09 04:08:13;;;;;;;0.00;0.00;;;;;;;;;;4931659;29;20019;-64
2022/07/09 04:10:38;;;;;;;0.00;0.00;;;;;;;;;;4931897;29;20032;-64
2022/07/09 04:13:03;;;;;;;0.00;0.00;;;;;;;;;;4932164;29;20465;-64
2022/07/09 04:15:29;;;;;;;0.00;0.00;;;;;;;;;;4915505;29;20389;-64
2022/07/09 04:17:54;;;;;;;0.00;0.00;;;;;;;;;;4931917;29;20027;-63
2022/07/09 04:20:19;;;;;;;0.00;0.00;;;;;;;;;;4931267;29;20079;-63
2022/07/09 04:22:44;;;;;;;0.00;0.00;;;;;;;;;;4933163;29;20019;-63
2022/07/09 04:25:09;;;;;;;0.00;0.00;;;;;;;;;;4932519;29;20461;-64
2022/07/09 04:27:38;;;;;;;0.00;0.00;;;;;;;;;;4915401;29;20079;-63
2022/07/09 04:30:04;;;;;;;0.00;0.00;;;;;;;;;;4931490;29;20040;-64
2022/07/09 04:32:29;;;;;;;0.00;0.00;;;;;;;;;;4933045;29;20039;-63
2022/07/09 04:34:55;;;;;;;0.00;0.00;;;;;;;;;;4932934;29;20019;-65
2022/07/09 04:37:20;;;;;;;0.00;0.00;;;;;;;;;;4931370;29;20038;-63
2022/07/09 04:39:45;;;;;;;0.00;0.00;;;;;;;;;;4932030;29;20035;-63
2022/07/09 04:42:12;;;;;;;0.00;0.00;;;;;;;;;;4932140;29;20023;-63
2022/07/09 04:44:37;;;;;;;0.00;0.00;;;;;;;;;;4933127;29;20024;-65
2022/07/09 04:47:03;;;;;;;0.00;0.00;;;;;;;;;;4932457;29;20027;-66
2022/07/09 04:49:28;;;;;;;0.17;0.17;;;;;;;;;;4932460;29;20070;-66
2022/07/09 04:51:53;;;;;;;0.00;0.00;;;;;;;;;;4932910;29;20034;-67
2022/07/09 04:54:18;;;;;;;0.00;0.00;;;;;;;;;;4932295;29;20142;-66
2022/07/09 04:56:44;;;;;;;0.00;0.00;;;;;;;;;;4931564;29;20074;-64
2022/07/09 04:59:09;;;;;;;0.00;0.00;;;;;;;;;;4931924;29;20082;-64
2022/07/09 05:01:34;;;;;;;0.00;0.00;;;;;;;;;;4932462;29;20065;-63
2022/07/09 05:03:59;;;;;;;0.00;0.00;;;;;;;;;;4932772;29;20028;-63
2022/07/09 05:06:24;;;;;;;0.00;0.00;;;;;;;;;;4930816;29;20038;-63
2022/07/09 05:08:50;;;;;;;0.00;0.00;;;;;;;;;;4931255;29;20374;-63
2022/07/09 05:11:15;;;;;;;0.00;0.00;;;;;;;;;;4932565;29;20031;-64
2022/07/09 05:13:41;;;;;;;0.00;0.00;;;;;;;;;;4932468;29;20040;-65
2022/07/09 05:16:07;;;;;;;0.00;0.00;;;;;;;;;;4932448;29;20059;-61
2022/07/09 05:18:32;;;;;;;0.00;0.00;;;;;;;;;;4930573;29;20106;-64
2022/07/09 05:20:57;;;;;;;0.00;0.00;;;;;;;;;;4929995;29;20371;-61
2022/07/09 05:23:23;;;;;;;0.10;0.10;;;;;;;;;;4934588;29;20043;-61
2022/07/09 05:25:48;;;;;;;0.00;0.00;;;;;;;;;;4934074;29;20099;-63
2022/07/09 05:28:13;;;;;;;0.00;0.00;;;;;;;;;;4933190;29;20030;-62
2022/07/09 05:30:38;;;;;;;0.00;0.00;;;;;;;;;;4932406;29;20060;-62
2022/07/09 05:33:04;;;;;;;0.10;0.10;;;;;;;;;;4928175;29;20027;-63
2022/07/09 05:35:29;;;;;;;0.00;0.00;;;;;;;;;;4930757;29;20083;-62
2022/07/09 05:37:55;;;;;;;0.47;0.47;;;;;;;;;;4931854;29;20977;-66
2022/07/09 05:40:20;;;;;;;0.00;0.00;;;;;;;;;;4930863;29;20039;-66
2022/07/09 05:42:46;;;;;;;0.00;0.00;;;;;;;;;;4931163;29;20016;-59
2022/07/09 05:45:11;;;;;;;0.00;0.00;;;;;;;;;;4933059;29;20028;-64
2022/07/09 05:47:36;;;;;;;0.00;0.00;;;;;;;;;;4932648;29;20023;-63
2022/07/09 05:50:02;;;;;;;0.00;0.00;;;;;;;;;;4931232;29;20039;-63
2022/07/09 05:52:27;;;;;;;0.00;0.00;;;;;;;;;;4930912;29;20031;-65
2022/07/09 05:54:52;;;;;;;0.00;0.00;;;;;;;;;;4931361;29;20178;-65
2022/07/09 05:57:18;;;;;;;0.00;0.00;;;;;;;;;;4914090;29;20280;-65
2022/07/09 05:59:43;;;;;;;0.00;0.00;;;;;;;;;;4930748;29;20055;-65
2022/07/09 06:02:08;;;;;;;0.00;0.00;;;;;;;;;;4930150;29;20039;-63
2022/07/09 06:04:33;;;;;;;0.00;0.00;;;;;;;;;;4929802;29;20044;-63
2022/07/09 06:06:58;;;;;;;0.00;0.00;;;;;;;;;;4930151;29;20035;-63
2022/07/09 06:09:24;;;;;;;0.00;0.00;;;;;;;;;;4930918;29;20027;-63
2022/07/09 06:11:49;;;;;;;0.10;0.10;;;;;;;;;;4931525;29;20031;-63
2022/07/09 06:14:14;;;;;;;0.00;0.00;;;;;;;;;;4931099;29;20259;-63
2022/07/09 06:16:39;;;;;;;0.00;0.00;;;;;;;;;;4931721;29;20023;-63
2022/07/09 06:19:05;;;;;;;0.00;0.00;;;;;;;;;;4931467;29;20027;-63
2022/07/09 06:21:30;;;;;;;0.00;0.00;;;;;;;;;;4930902;29;20056;-63
2022/07/09 06:23:56;;;;;;;0.00;0.00;;;;;;;;;;4929858;29;20040;-63
2022/07/09 06:26:21;;;;;;;0.10;0.10;;;;;;;;;;4925992;29;20030;-63
2022/07/09 06:28:46;;;;;;;0.00;0.00;;;;;;;;;;4930062;29;20528;-62
2022/07/09 06:31:12;;;;;;;0.00;0.00;;;;;;;;;;4930507;29;20358;-62
2022/07/09 06:33:37;;;;;;;0.00;0.00;;;;;;;;;;4930758;29;20028;-63
2022/07/09 06:36:02;;;;;;;0.17;0.17;;;;;;;;;;4931252;29;20043;-63
2022/07/09 06:38:29;;;;;;;0.00;0.00;;;;;;;;;;4930397;29;20556;-63
2022/07/09 06:40:54;;;;;;;0.00;0.00;;;;;;;;;;4931265;29;20026;-63
2022/07/09 06:43:20;;;;;;;0.00;0.00;;;;;;;;;;4933164;29;20393;-63
2022/07/09 06:45:45;;;;;;;0.00;0.00;;;;;;;;;;4934179;29;20015;-64
2022/07/09 06:48:10;;;;;;;0.00;0.00;;;;;;;;;;4933915;29;20042;-64
2022/07/09 06:50:35;;;;;;;0.00;0.00;;;;;;;;;;4933792;29;20276;-62
2022/07/09 06:53:00;;;;;;;0.00;0.00;;;;;;;;;;4934105;29;20276;-63
2022/07/09 06:55:26;;;;;;;0.00;0.00;;;;;;;;;;4934089;29;20055;-62
2022/07/09 06:57:51;;;;;;;0.00;0.00;;;;;;;;;;4932688;29;20354;-62
2022/07/09 07:00:17;;;;;;;0.00;0.00;;;;;;;;;;4929432;29;20035;-63
2022/07/09 07:02:42;;;;;;;0.00;0.00;;;;;;;;;;4929188;29;20303;-63
2022/07/09 07:05:07;;;;;;;0.00;0.00;;;;;;;;;;4933991;29;20047;-63
2022/07/09 07:07:33;;;;;;;0.10;0.10;;;;;;;;;;4934307;29;20850;-63
2022/07/09 07:09:58;;;;;;;0.00;0.00;;;;;;;;;;4934991;29;20095;-63
2022/07/09 07:12:23;;;;;;;0.00;0.00;;;;;;;;;;4933724;29;20038;-63
2022/07/09 07:14:48;;;;;;;0.00;0.00;;;;;;;;;;4933459;29;20035;-62
2022/07/09 07:17:13;;;;;;;0.00;0.00;;;;;;;;;;4934051;29;20023;-63
2022/07/09 07:19:39;;;;;;;0.00;0.00;;;;;;;;;;4934305;29;20528;-63
2022/07/09 07:22:04;;;;;;;0.00;0.00;;;;;;;;;;4933808;29;20441;-63
2022/07/09 07:24:32;;;;;;;0.00;0.00;;;;;;;;;;4931467;29;20028;-63
2022/07/09 07:26:58;;;;;;;0.10;0.10;;;;;;;;;;4928494;29;20031;-64
2022/07/09 07:29:23;;;;;;;0.82;0.82;;;;;;;;;;4933242;29;20031;-64
2022/07/09 07:31:49;;;;;;;0.63;0.63;;;;;;;;;;4934215;29;20036;-64
2022/07/09 07:34:15;;;;;;;0.00;0.00;;;;;;;;;;4933567;29;20062;-62
2022/07/09 07:36:40;;;;;;;0.00;0.00;;;;;;;;;;4932340;29;20024;-63
2022/07/09 07:39:05;;;;;;;0.30;0.20;;;;;;;;;;4933887;29;20661;-63
2022/07/09 07:41:30;;;;;;;0.00;0.00;;;;;;;;;;4932780;29;20024;-63
2022/07/09 07:43:56;;;;;;;0.00;0.00;;;;;;;;;;4933827;29;20111;-63
2022/07/09 07:46:21;;;;;;;0.00;0.00;;;;;;;;;;4933393;29;20103;-63
2022/07/09 07:48:46;;;;;;;0.00;0.00;;;;;;;;;;4933958;29;20080;-63
2022/07/09 07:51:11;;;;;;;0.00;0.00;;;;;;;;;;4933509;29;20030;-63
2022/07/09 07:53:37;;;;;;;0.00;0.00;;;;;;;;;;4933520;29;20625;-63
2022/07/09 07:56:06;;;;;;;0.03;0.03;;;;;;;;;;4932754;29;20091;-63
2022/07/09 07:58:32;;;;;;;0.75;0.50;;;;;;;;;;4931987;29;20035;-63
2022/07/09 08:00:57;;;;;;;0.00;0.00;;;;;;;;;;4932879;29;20039;-62
2022/07/09 08:03:22;;;;;;;0.00;0.00;;;;;;;;;;4931732;29;20080;-63
2022/07/09 08:05:48;;;;;;;0.85;0.85;;;;;;;;;;4929376;29;20116;-63
2022/07/09 08:08:13;;;;;;;0.00;0.00;;;;;;;;;;4928510;29;20051;-62
2022/07/09 08:10:38;;;;;;;0.00;0.00;;;;;;;;;;4928428;29;20024;-63
2022/07/09 08:13:04;;;;;;;0.00;0.00;;;;;;;;;;4928398;29;20494;-62
2022/07/09 08:15:29;;;;;;;0.00;0.00;;;;;;;;;;4922019;29;20027;-63
2022/07/09 08:17:55;;;;;;;0.00;0.00;;;;;;;;;;4926940;29;20043;-63
2022/07/09 08:20:20;;;;;;;0.00;0.00;;;;;;;;;;4928695;29;20047;-63
2022/07/09 08:22:45;;;;;;;0.00;0.00;;;;;;;;;;4928118;29;20031;-63
2022/07/09 08:25:11;;;;;;;0.13;0.13;;;;;;;;;;4927630;29;20485;-63
2022/07/09 08:27:36;;;;;;;0.10;0.10;;;;;;;;;;4925953;29;20460;-63
2022/07/09 08:30:04;;;;;;;0.00;0.00;;;;;;;;;;4929171;29;20032;-63
2022/07/09 08:32:31;;;;;;;0.00;0.00;;;;;;;;;;4928434;29;20106;-63
2022/07/09 08:34:59;;;;;;;0.28;0.28;;;;;;;;;;4928182;29;20023;-63
2022/07/09 08:37:24;;;;;;;0.15;0.15;;;;;;;;;;4927786;29;20050;-64
2022/07/09 08:39:49;;;;;;;0.63;0.63;;;;;;;;;;4925044;29;20388;-63
2022/07/09 08:42:15;;;;;;;0.00;0.00;;;;;;;;;;4925401;29;20266;-64
2022/07/09 08:44:42;;;;;;;0.15;0.15;;;;;;;;;;4925109;29;20030;-64
2022/07/09 08:47:09;;;;;;;0.00;0.00;;;;;;;;;;4926784;29;20111;-64
2022/07/09 08:49:36;;;;;;;3.60;0.17;;;;;;;;;;4926078;29;20035;-63
2022/07/09 08:52:02;;;;;;;2.20;1.45;;;;;;;;;;4923493;29;20032;-64
2022/07/09 08:54:30;;;;;;;0.03;0.03;;;;;;;;;;4922523;29;20035;-64
2022/07/09 08:56:55;;;;;;;0.10;0.10;;;;;;;;;;4926817;29;21305;-64
2022/07/09 08:59:20;;;;;;;0.00;0.00;;;;;;;;;;4925799;29;20038;-64
2022/07/09 09:01:46;;;;;;;3.03;0.77;;;;;;;;;;4928362;29;20283;-64
2022/07/09 09:04:12;;;;;;;0.00;0.00;;;;;;;;;;4926498;29;20291;-63
2022/07/09 09:06:43;;;;;;;0.00;0.00;;;;;;;;;;4927671;29;20888;-65
2022/07/09 09:09:17;;;;;;;0.00;0.00;;;;;;;;;;4927177;29;20020;-65
2022/07/09 09:11:42;;;;;;;0.00;0.00;;;;;;;;;;4927299;29;20034;-65
2022/07/09 09:14:17;;;;;;;0.00;0.00;;;;;;;;;;4927307;29;20032;-65
2022/07/09 09:16:45;;;;;;;0.00;0.00;;;;;;;;;;4927456;29;20162;-65
2022/07/09 09:19:10;;;;;;;0.00;0.00;;;;;;;;;;4910564;29;20050;-65
2022/07/09 09:21:44;;;;;;;0.00;0.00;;;;;;;;;;4925813;29;20052;-66
2022/07/09 09:24:12;;;;;;;0.20;0.20;;;;;;;;;;4927366;29;20040;-65
2022/07/09 09:26:37;;;;;;;0.20;0.20;;;;;;;;;;4928135;29;20040;-65
2022/07/09 09:29:04;;;;;;;0.13;0.13;;;;;;;;;;4925919;29;20035;-65
2022/07/09 09:31:35;;;;;;;4.30;0.30;;;;;;;;;;4924919;29;20050;-65
2022/07/09 09:34:19;;;;;;;0.47;0.47;;;;;;;;;;4922559;29;20377;-65
2022/07/09 09:36:50;;;;;;;0.20;0.10;;;;;;;;;;4926308;29;20032;-64
2022/07/09 09:39:15;;;;;;;0.10;0.10;;;;;;;;;;4925819;29;20523;-64
2022/07/09 09:41:42;;;;;;;0.15;0.15;;;;;;;;;;4928033;29;20032;-64
2022/07/09 09:44:17;;;;;;;0.13;0.13;;;;;;;;;;4922429;29;20027;-65
2022/07/09 09:46:43;;;;;;;8.88;0.75;;;;;;;;;;4927400;29;20027;-65
2022/07/09 09:49:14;;;;;;;0.20;0.20;;;;;;;;;;4926657;29;20499;-65
2022/07/09 09:51:45;;;;;;;0.03;0.03;;;;;;;;;;4926231;29;20111;-66
2022/07/09 09:54:11;;;;;;;0.10;0.10;;;;;;;;;;4926604;29;20035;-66
2022/07/09 09:56:38;;;;;;;0.52;0.52;;;;;;;;;;4925158;29;20098;-66
2022/07/09 09:59:03;;;;;;;0.68;0.15;;;;;;;;;;4922750;29;20107;-65
2022/07/09 10:01:29;;;;;;;0.25;0.25;;;;;;;;;;4923945;29;20034;-65
2022/07/09 10:03:55;;;;;;;0.00;0.00;;;;;;;;;;4926732;29;20024;-65
2022/07/09 10:06:20;;;;;;;0.15;0.15;;;;;;;;;;4926753;29;20019;-66
2022/07/09 10:08:46;;;;;;;0.22;0.22;;;;;;;;;;4927046;29;20107;-65
2022/07/09 10:11:11;;;;;;;0.10;0.10;;;;;;;;;;4927528;29;20032;-65
2022/07/09 10:13:49;;;;;;;1.60;0.28;;;;;;;;;;4926977;29;20054;-65
2022/07/09 10:16:14;;;;;;;0.08;0.08;;;;;;;;;;4925643;29;20035;-66
2022/07/09 10:18:49;;;;;;;0.28;0.28;;;;;;;;;;4926166;29;20074;-65
2022/07/09 10:21:14;;;;;;;0.00;0.00;;;;;;;;;;4922182;29;20043;-65
2022/07/09 10:23:48;;;;;;;2.55;0.57;;;;;;;;;;4927313;29;20042;-65
2022/07/09 10:26:13;;;;;;;0.20;0.20;;;;;;;;;;4925610;29;20121;-65
2022/07/09 10:28:40;;;;;;;0.20;0.20;;;;;;;;;;4927178;29;20050;-65
2022/07/09 10:31:08;;;;;;;0.10;0.10;;;;;;;;;;4926778;29;20413;-65
2022/07/09 10:33:35;;;;;;;0.82;0.82;;;;;;;;;;4923619;29;20552;-65
2022/07/09 10:36:10;;;;;;;0.08;0.08;;;;;;;;;;4926165;29;20118;-65
2022/07/09 10:38:38;;;;;;;0.75;0.75;;;;;;;;;;4921746;29;20119;-65
2022/07/09 10:41:03;;;;;;;0.00;0.00;;;;;;;;;;4923125;29;20646;-64
2022/07/09 10:43:49;;;;;;;0.20;0.15;;;;;;;;;;4923786;29;20032;-65
2022/07/09 10:46:15;;;;;;;0.00;0.00;;;;;;;;;;4921812;29;20060;-65
2022/07/09 10:48:41;;;;;;;0.00;0.00;;;;;;;;;;4905410;29;20039;-65
2022/07/09 10:51:06;;;;;;;1.23;1.17;;;;;;;;;;4922573;29;20082;-65
2022/07/09 10:53:31;;;;;;;1.65;0.80;;;;;;;;;;4919073;29;20028;-65
2022/07/09 10:55:58;;;;;;;0.10;0.10;;;;;;;;;;4922765;29;20035;-65
2022/07/09 10:58:24;;;;;;;3.72;0.95;;;;;;;;;;4922505;29;20079;-65
2022/07/09 11:00:56;;;;;;;0.95;0.45;;;;;;;;;;4922540;29;20505;-66
2022/07/09 11:03:26;;;;;;;0.00;0.00;;;;;;;;;;4919872;29;20030;-65
2022/07/09 11:05:51;;;;;;;0.00;0.00;;;;;;;;;;4923740;29;20031;-64
2022/07/09 11:08:16;;;;;;;0.22;0.22;;;;;;;;;;4925182;29;20019;-65
2022/07/09 11:10:41;;;;;;;0.93;0.23;;;;;;;;;;4926372;29;20038;-65
2022/07/09 11:13:10;;;;;;;0.73;0.73;;;;;;;;;;4926058;29;20264;-65
2022/07/09 11:15:37;;;;;;;0.00;0.00;;;;;;;;;;4904709;29;20536;-65
2022/07/09 11:18:03;;;;;;;0.17;0.17;;;;;;;;;;4923071;29;20111;-65
2022/07/09 11:20:30;;;;;;;0.75;0.75;;;;;;;;;;4921867;29;20158;-65
2022/07/09 11:23:00;;;;;;;0.65;0.65;;;;;;;;;;4921328;29;20497;-65
2022/07/09 11:25:26;;;;;;;0.00;0.00;;;;;;;;;;4921724;29;20016;-65
2022/07/09 11:27:52;;;;;;;1.00;0.70;;;;;;;;;;4923938;29;20548;-66
2022/07/09 11:30:20;;;;;;;0.15;0.15;;;;;;;;;;4927850;29;20024;-65
2022/07/09 11:32:46;;;;;;;0.90;0.90;;;;;;;;;;4929681;29;20031;-65
2022/07/09 11:35:11;;;;;;;0.20;0.15;;;;;;;;;;4928687;29;20060;-65
2022/07/09 11:37:37;;;;;;;0.10;0.10;;;;;;;;;;4929586;29;20473;-65
2022/07/09 11:40:03;;;;;;;0.28;0.28;;;;;;;;;;4929314;29;20115;-64
2022/07/09 11:42:28;;;;;;;0.22;0.22;;;;;;;;;;4928331;29;20123;-64
2022/07/09 11:44:54;;;;;;;0.10;0.10;;;;;;;;;;4928234;29;20129;-64
2022/07/09 11:47:22;;;;;;;0.00;0.00;;;;;;;;;;4928514;29;20031;-64
2022/07/09 11:49:50;;;;;;;0.10;0.10;;;;;;;;;;4929435;29;20107;-63
2022/07/09 11:52:23;;;;;;;3.20;0.35;;;;;;;;;;4929010;29;20044;-64
2022/07/09 11:54:55;;;;;;;0.68;0.63;;;;;;;;;;4928756;29;20043;-64
2022/07/09 11:57:23;;;;;;;0.00;0.00;;;;;;;;;;4929023;29;20035;-65
2022/07/09 11:59:48;;;;;;;0.00;0.00;;;;;;;;;;4927828;29;20032;-65
2022/07/09 12:02:23;;;;;;;0.13;0.13;;;;;;;;;;4928787;29;20054;-65
2022/07/09 12:04:48;;;;;;;0.00;0.00;;;;;;;;;;4928332;29;20457;-65
2022/07/09 12:07:13;;;;;;;0.00;0.00;;;;;;;;;;4929020;29;20034;-66
2022/07/09 12:09:39;;;;;;;0.00;0.00;;;;;;;;;;4928597;29;20480;-65
2022/07/09 12:12:04;;;;;;;0.93;0.67;;;;;;;;;;4929261;29;20355;-65
2022/07/09 12:14:29;;;;;;;0.10;0.10;;;;;;;;;;4927744;29;20283;-65
2022/07/09 12:16:54;;;;;;;0.00;0.00;;;;;;;;;;4928179;29;20041;-64
2022/07/09 12:19:20;;;;;;;0.20;0.20;;;;;;;;;;4929138;29;20649;-64
2022/07/09 12:21:45;;;;;;;0.00;0.00;;;;;;;;;;4928838;29;20142;-65
2022/07/09 12:24:10;;;;;;;0.57;0.57;;;;;;;;;;4929282;29;20035;-66
2022/07/09 12:26:36;;;;;;;0.00;0.00;;;;;;;;;;4928935;29;20027;-65
2022/07/09 12:29:01;;;;;;;0.60;0.60;;;;;;;;;;4929110;29;20127;-65
2022/07/09 12:31:26;;;;;;;0.30;0.10;;;;;;;;;;4927177;29;20039;-65
2022/07/09 12:33:51;;;;;;;0.95;0.85;;;;;;;;;;4929493;29;20665;-65
2022/07/09 12:36:17;;;;;;;0.20;0.20;;;;;;;;;;4928642;29;20099;-65
2022/07/09 12:38:42;;;;;;;0.55;0.55;;;;;;;;;;4928807;29;20036;-64
2022/07/09 12:41:08;;;;;;;0.55;0.55;;;;;;;;;;4928101;29;20028;-65
2022/07/09 12:43:33;;;;;;;0.38;0.38;;;;;;;;;;4928085;29;20063;-61
2022/07/09 12:45:58;;;;;;;0.20;0.20;;;;;;;;;;4928717;29;20075;-64
2022/07/09 12:48:23;;;;;;;0.00;0.00;;;;;;;;;;4928715;29;20276;-65
2022/07/09 12:50:48;;;;;;;1.40;1.33;;;;;;;;;;4929217;29;20035;-65
2022/07/09 12:53:14;;;;;;;0.10;0.10;;;;;;;;;;4928183;29;20160;-65
2022/07/09 12:55:39;;;;;;;0.17;0.17;;;;;;;;;;4928930;29;20051;-65
2022/07/09 12:58:04;;;;;;;0.45;0.45;;;;;;;;;;4928875;29;20055;-65
2022/07/09 13:00:29;;;;;;;0.85;0.85;;;;;;;;;;4926722;29;20059;-65
2022/07/09 13:02:55;;;;;;;1.33;0.70;;;;;;;;;;4928174;29;20023;-65
2022/07/09 13:05:20;;;;;;;0.38;0.38;;;;;;;;;;4927584;29;20276;-65
2022/07/09 13:07:45;;;;;;;1.27;1.20;;;;;;;;;;4926656;29;20039;-64
2022/07/09 13:10:10;;;;;;;0.00;0.00;;;;;;;;;;4926472;29;20263;-63
2022/07/09 13:12:36;;;;;;;0.00;0.00;;;;;;;;;;4927427;29;20042;-64
2022/07/09 13:15:01;;;;;;;0.00;0.00;;;;;;;;;;4928209;29;20103;-64
2022/07/09 13:17:26;;;;;;;0.00;0.00;;;;;;;;;;4927399;29;20035;-63
2022/07/09 13:19:52;;;;;;;1.55;0.43;;;;;;;;;;4927242;29;20521;-64
2022/07/09 13:22:17;;;;;;;0.10;0.10;;;;;;;;;;4928020;29;20047;-64
2022/07/09 13:24:42;;;;;;;0.00;0.00;;;;;;;;;;4927823;29;20485;-64
2022/07/09 13:27:09;;;;;;;0.30;0.10;;;;;;;;;;4927833;29;20027;-64
2022/07/09 13:29:35;;;;;;;4.90;0.47;;;;;;;;;;4927375;29;20654;-63
2022/07/09 13:32:00;;;;;;;1.20;1.00;;;;;;;;;;4925871;29;20032;-64
2022/07/09 13:34:25;;;;;;;0.20;0.20;;;;;;;;;;4926553;29;20118;-64
2022/07/09 13:36:51;;;;;;;0.20;0.20;;;;;;;;;;4926365;29;20122;-64
2022/07/09 13:39:16;;;;;;;0.28;0.28;;;;;;;;;;4923144;29;20962;-64
2022/07/09 13:41:41;;;;;;;0.10;0.10;;;;;;;;;;4926794;29;20051;-64
2022/07/09 13:44:07;;;;;;;0.77;0.77;;;;;;;;;;4927707;29;20260;-64
2022/07/09 13:46:32;;;;;;;0.38;0.38;;;;;;;;;;4927157;29;20263;-64
2022/07/09 13:48:58;;;;;;;0.45;0.45;;;;;;;;;;4927211;29;20516;-64
2022/07/09 13:51:23;;;;;;;0.20;0.20;;;;;;;;;;4926865;29;20098;-64
2022/07/09 13:53:48;;;;;;;0.10;0.10;;;;;;;;;;4927416;29;20031;-65
2022/07/09 13:56:13;;;;;;;0.00;0.00;;;;;;;;;;4927595;29;20753;-65
2022/07/09 13:58:39;;;;;;;0.00;0.00;;;;;;;;;;4923164;29;20504;-65
2022/07/09 14:01:04;;;;;;;0.00;0.00;;;;;;;;;;4924278;29;20031;-65
2022/07/09 14:03:29;;;;;;;0.20;0.20;;;;;;;;;;4917951;29;20024;-65
2022/07/09 14:05:54;;;;;;;0.03;0.03;;;;;;;;;;4923989;29;20028;-64
2022/07/09 14:08:22;;;;;;;0.10;0.10;;;;;;;;;;4921559;29;20023;-64
2022/07/09 14:10:47;;;;;;;0.00;0.00;;;;;;;;;;4927192;29;20173;-64
2022/07/09 14:13:13;;;;;;;0.00;0.00;;;;;;;;;;4924874;29;20102;-64
2022/07/09 14:15:38;;;;;;;0.45;0.28;;;;;;;;;;4923722;29;20090;-64
2022/07/09 14:18:03;;;;;;;0.00;0.00;;;;;;;;;;4923772;29;20086;-64
2022/07/09 14:20:28;;;;;;;0.00;0.00;;;;;;;;;;4924156;29;20063;-64
2022/07/09 14:22:54;;;;;;;0.10;0.10;;;;;;;;;;4924958;29;20028;-64
2022/07/09 14:25:19;;;;;;;0.80;0.80;;;;;;;;;;4904030;29;20030;-64
2022/07/09 14:27:44;;;;;;;0.80;0.80;;;;;;;;;;4919709;29;20640;-64
2022/07/09 14:30:10;;;;;;;0.00;0.00;;;;;;;;;;4923728;29;20044;-64
2022/07/09 14:32:35;;;;;;;0.20;0.20;;;;;;;;;;4919711;29;20043;-65
2022/07/09 14:35:00;;;;;;;0.00;0.00;;;;;;;;;;4923087;29;20039;-63